createdAt,value
2018-12-19T00:00:40.417Z,12.65
2018-12-19T00:03:06.666Z,14.58
2018-12-19T00:05:32.905Z,12.78
2018-12-19T00:07:59.180Z,15.50
2018-12-19T00:10:25.512Z,13.95
2018-12-19T00:12:51.776Z,13.85
2018-12-19T00:15:18.018Z,14.73
2018-12-19T00:17:44.284Z,17.82
2018-12-19T00:20:10.566Z,14.70
2018-12-19T00:22:36.802Z,14.40
2018-12-19T00:25:03.610Z,14.63
2018-12-19T00:27:29.859Z,15.00
2018-12-19T00:29:56.094Z,14.40
2018-12-19T00:32:22.391Z,14.95
2018-12-19T00:34:48.645Z,16.57
2018-12-19T00:37:14.889Z,16.20
2018-12-19T00:39:41.168Z,16.90
2018-12-19T00:42:07.409Z,16.20
2018-12-19T00:44:33.634Z,17.07
2018-12-19T00:46:59.904Z,17.35
2018-12-19T00:49:26.160Z,17.35
2018-12-19T00:51:52.419Z,16.97
2018-12-19T00:54:18.799Z,17.80
2018-12-19T00:56:45.040Z,17.05
2018-12-19T00:59:11.323Z,15.88
2018-12-19T01:01:37.563Z,15.78
2018-12-19T01:04:03.814Z,16.75
2018-12-19T01:06:30.211Z,16.23
2018-12-19T01:08:56.442Z,16.50
2018-12-19T01:11:22.710Z,17.98
2018-12-19T01:13:48.951Z,16.05
2018-12-19T01:16:15.191Z,15.08
2018-12-19T01:18:41.455Z,17.32
2018-12-19T01:21:07.706Z,17.57
2018-12-19T01:23:33.993Z,16.90
2018-12-19T01:26:00.249Z,15.35
2018-12-19T01:28:26.492Z,15.48
2018-12-19T01:30:52.915Z,16.00
2018-12-19T01:33:19.156Z,16.00
2018-12-19T01:35:45.408Z,17.25
2018-12-19T01:38:11.679Z,17.17
2018-12-19T01:40:37.982Z,15.80
2018-12-19T01:43:04.251Z,17.12
2018-12-19T01:45:30.502Z,16.97
2018-12-19T01:47:56.916Z,16.67
2018-12-19T01:50:23.192Z,18.10
2018-12-19T01:52:49.475Z,15.63
2018-12-19T01:55:15.733Z,18.02
2018-12-19T01:57:42.006Z,17.20
2018-12-19T02:00:08.288Z,17.75
2018-12-19T02:02:34.591Z,17.40
2018-12-19T02:05:00.838Z,17.45
2018-12-19T02:07:27.110Z,18.35
2018-12-19T02:09:53.361Z,19.42
2018-12-19T02:12:19.750Z,16.77
2018-12-19T02:14:46.062Z,17.07
2018-12-19T02:17:12.319Z,16.40
2018-12-19T02:19:38.631Z,17.30
2018-12-19T02:22:04.987Z,16.17
2018-12-19T02:24:31.272Z,16.30
2018-12-19T02:26:57.530Z,17.37
2018-12-19T02:29:23.840Z,17.50
2018-12-19T02:31:50.266Z,17.70
2018-12-19T02:34:16.696Z,18.30
2018-12-19T02:36:42.963Z,17.50
2018-12-19T02:39:09.211Z,17.42
2018-12-19T02:41:35.528Z,18.17
2018-12-19T02:44:01.837Z,16.05
2018-12-19T02:46:28.128Z,17.50
2018-12-19T02:48:54.412Z,16.97
2018-12-19T02:51:20.743Z,18.80
2018-12-19T02:53:47.064Z,16.73
2018-12-19T02:56:13.381Z,17.65
2018-12-19T02:58:39.640Z,17.10
2018-12-19T03:01:05.935Z,16.52
2018-12-19T03:03:32.207Z,17.95
2018-12-19T03:05:58.511Z,15.85
2018-12-19T03:08:24.779Z,18.90
2018-12-19T03:10:51.268Z,17.40
2018-12-19T03:13:17.546Z,18.57
2018-12-19T03:15:43.805Z,19.35
2018-12-19T03:18:10.111Z,17.87
2018-12-19T03:20:36.380Z,19.25
2018-12-19T03:23:02.668Z,17.70
2018-12-19T03:25:28.997Z,18.35
2018-12-19T03:27:55.284Z,17.80
2018-12-19T03:30:21.580Z,16.23
2018-12-19T03:32:47.880Z,17.70
2018-12-19T03:35:14.187Z,18.52
2018-12-19T03:37:40.465Z,17.55
2018-12-19T03:40:06.979Z,17.37
2018-12-19T03:42:33.283Z,17.98
2018-12-19T03:44:59.543Z,19.52
2018-12-19T03:47:25.792Z,17.77
2018-12-19T03:49:52.123Z,18.23
2018-12-19T03:52:18.388Z,18.98
2018-12-19T03:54:44.821Z,17.15
2018-12-19T03:57:11.507Z,18.42
2018-12-19T03:59:37.778Z,17.75
2018-12-19T04:02:04.088Z,18.02
2018-12-19T04:04:30.367Z,18.90
2018-12-19T04:06:56.664Z,17.35
2018-12-19T04:09:22.947Z,18.17
2018-12-19T04:11:49.232Z,18.12
2018-12-19T04:14:15.496Z,19.27
2018-12-19T04:16:41.778Z,16.87
2018-12-19T04:19:08.043Z,16.52
2018-12-19T04:21:34.343Z,16.48
2018-12-19T04:24:00.592Z,17.48
2018-12-19T04:26:26.944Z,17.62
2018-12-19T04:28:53.232Z,18.17
2018-12-19T04:31:19.527Z,17.30
2018-12-19T04:33:45.790Z,16.55
2018-12-19T04:36:12.077Z,17.25
2018-12-19T04:38:38.582Z,16.97
2018-12-19T04:41:04.871Z,15.08
2018-12-19T04:43:31.139Z,16.00
2018-12-19T04:45:57.431Z,18.00
2018-12-19T04:48:23.706Z,14.85
2018-12-19T04:50:49.999Z,15.58
2018-12-19T04:53:16.383Z,13.40
2018-12-19T04:55:42.704Z,15.20
2018-12-19T04:58:09.011Z,13.40
2018-12-19T05:00:35.278Z,15.18
2018-12-19T05:03:01.581Z,15.60
2018-12-19T05:05:27.840Z,14.85
2018-12-19T05:07:54.378Z,14.78
2018-12-19T05:10:20.647Z,14.53
2018-12-19T05:12:46.916Z,15.23
2018-12-19T05:15:13.202Z,14.87
2018-12-19T05:17:39.476Z,14.28
2018-12-19T05:20:09.558Z,14.13
2018-12-19T05:22:35.863Z,14.07
2018-12-19T05:25:05.106Z,14.40
2018-12-19T05:27:31.357Z,13.20
2018-12-19T05:29:57.634Z,12.45
2018-12-19T05:32:23.915Z,14.13
2018-12-19T05:34:50.190Z,15.32
2018-12-19T05:37:16.457Z,14.68
2018-12-19T05:39:42.713Z,14.70
2018-12-19T05:42:09.005Z,14.00
2018-12-19T05:44:35.258Z,13.80
2018-12-19T05:47:01.532Z,14.15
2018-12-19T05:49:27.781Z,13.45
2018-12-19T05:51:54.092Z,14.28
2018-12-19T05:54:20.399Z,13.60
2018-12-19T05:56:46.658Z,15.53
2018-12-19T05:59:12.922Z,12.40
2018-12-19T06:01:39.194Z,13.35
2018-12-19T06:04:05.758Z,12.07
2018-12-19T06:06:32.046Z,12.20
2018-12-19T06:08:58.302Z,12.70
2018-12-19T06:11:24.673Z,13.20
2018-12-19T06:13:50.931Z,12.43
2018-12-19T06:16:17.262Z,13.00
2018-12-19T06:18:43.575Z,13.75
2018-12-19T06:21:09.828Z,13.70
2018-12-19T06:23:36.084Z,12.55
2018-12-19T06:26:02.367Z,12.58
2018-12-19T06:28:28.627Z,11.57
2018-12-19T06:30:54.896Z,11.05
2018-12-19T06:33:21.161Z,10.65
2018-12-19T06:35:47.418Z,9.70
2018-12-19T06:38:13.699Z,9.15
2018-12-19T06:40:39.960Z,9.80
2018-12-19T06:43:06.219Z,8.50
2018-12-19T06:45:32.493Z,9.90
2018-12-19T06:47:58.743Z,9.53
2018-12-19T06:50:24.990Z,9.53
2018-12-19T06:52:51.282Z,10.48
2018-12-19T06:55:17.523Z,10.53
2018-12-19T06:57:43.810Z,10.40
2018-12-19T07:00:10.183Z,9.53
2018-12-19T07:02:36.442Z,9.95
2018-12-19T07:05:03.771Z,11.05
2018-12-19T07:07:30.019Z,11.15
2018-12-19T07:09:56.270Z,11.68
2018-12-19T07:12:22.542Z,10.85
2018-12-19T07:14:48.924Z,11.73
2018-12-19T07:17:15.183Z,12.82
2018-12-19T07:19:41.452Z,11.73
2018-12-19T07:22:07.725Z,14.15
2018-12-19T07:24:33.981Z,13.50
2018-12-19T07:27:00.284Z,15.63
2018-12-19T07:29:26.555Z,16.30
2018-12-19T07:31:52.915Z,15.98
2018-12-19T07:34:19.200Z,17.20
2018-12-19T07:36:45.467Z,17.02
2018-12-19T07:39:11.732Z,18.87
2018-12-19T07:41:38.012Z,17.15
2018-12-19T07:44:04.242Z,19.45
2018-12-19T07:46:30.487Z,16.65
2018-12-19T07:48:56.791Z,17.23
2018-12-19T07:51:23.086Z,18.65
2018-12-19T07:53:49.336Z,18.67
2018-12-19T07:56:15.827Z,17.37
2018-12-19T07:58:42.148Z,16.65
2018-12-19T08:01:08.403Z,19.75
2018-12-19T08:03:34.839Z,20.27
2018-12-19T08:06:01.080Z,21.33
2018-12-19T08:08:27.362Z,22.30
2018-12-19T08:10:53.661Z,23.20
2018-12-19T08:13:19.916Z,21.65
2018-12-19T08:15:46.196Z,23.55
2018-12-19T08:18:12.480Z,21.85
2018-12-19T08:20:39.396Z,22.70
2018-12-19T08:23:05.670Z,20.40
2018-12-19T08:25:31.927Z,21.73
2018-12-19T08:27:58.199Z,22.40
2018-12-19T08:30:24.467Z,22.00
2018-12-19T08:32:50.718Z,22.20
2018-12-19T08:35:17.021Z,21.45
2018-12-19T08:37:43.274Z,22.40
2018-12-19T08:40:09.522Z,23.57
2018-12-19T08:42:35.799Z,22.05
2018-12-19T08:45:02.327Z,23.35
2018-12-19T08:47:28.598Z,21.70
2018-12-19T08:49:54.871Z,24.02
2018-12-19T08:52:21.139Z,24.00
2018-12-19T08:54:47.399Z,23.02
2018-12-19T08:57:13.697Z,21.95
2018-12-19T08:59:39.961Z,21.17
2018-12-19T09:02:06.267Z,22.25
2018-12-19T09:04:32.539Z,21.35
2018-12-19T09:06:58.779Z,21.97
2018-12-19T09:09:25.076Z,24.20
2018-12-19T09:11:51.363Z,23.67
2018-12-19T09:14:17.667Z,20.40
2018-12-19T09:16:43.951Z,23.02
2018-12-19T09:19:10.225Z,24.43
2018-12-19T09:21:36.489Z,23.47
2018-12-19T09:24:02.771Z,23.73
2018-12-19T09:26:29.041Z,24.77
2018-12-19T09:28:55.343Z,23.27
2018-12-19T09:31:21.601Z,24.18
2018-12-19T09:33:47.847Z,23.12
2018-12-19T09:36:14.137Z,23.10
2018-12-19T09:38:41.061Z,23.73
2018-12-19T09:41:12.301Z,25.15
2018-12-19T09:43:35.755Z,24.95
2018-12-19T09:46:02.012Z,23.05
2018-12-19T09:48:28.309Z,21.87
2018-12-19T09:50:54.579Z,24.37
2018-12-19T09:53:20.959Z,25.75
2018-12-19T09:55:47.230Z,26.10
2018-12-19T09:58:13.508Z,23.60
2018-12-19T10:00:39.818Z,24.35
2018-12-19T10:03:06.084Z,23.12
2018-12-19T10:05:32.327Z,21.60
2018-12-19T10:07:58.642Z,24.05
2018-12-19T10:10:25.014Z,23.47
2018-12-19T10:12:51.271Z,21.40
2018-12-19T10:15:17.546Z,23.02
2018-12-19T10:17:43.800Z,23.25
2018-12-19T10:20:10.203Z,22.02
2018-12-19T10:22:36.979Z,23.85
2018-12-19T10:25:10.662Z,22.82
2018-12-19T10:27:36.953Z,23.40
2018-12-19T10:30:06.959Z,26.20
2018-12-19T10:32:35.260Z,26.45
2018-12-19T10:35:01.536Z,25.20
2018-12-19T10:37:27.788Z,24.47
2018-12-19T10:39:54.196Z,23.80
2018-12-19T10:42:20.463Z,23.70
2018-12-19T10:44:46.730Z,23.32
2018-12-19T10:47:12.985Z,24.00
2018-12-19T10:49:39.267Z,24.20
2018-12-19T10:52:05.511Z,23.12
2018-12-19T10:54:31.767Z,23.07
2018-12-19T10:56:58.148Z,23.12
2018-12-19T10:59:24.403Z,24.02
2018-12-19T11:01:50.655Z,24.92
2018-12-19T11:04:16.953Z,24.95
2018-12-19T11:06:43.228Z,24.98
2018-12-19T11:09:09.524Z,24.30
2018-12-19T11:11:35.777Z,24.98
2018-12-19T11:14:02.065Z,25.60
2018-12-19T11:16:28.317Z,22.98
2018-12-19T11:18:54.577Z,22.80
2018-12-19T11:21:20.839Z,23.83
2018-12-19T11:23:47.143Z,23.45
2018-12-19T11:26:13.438Z,23.62
2018-12-19T11:28:39.699Z,25.23
2018-12-19T11:31:06.143Z,22.55
2018-12-19T11:33:32.402Z,26.77
2018-12-19T11:35:58.684Z,23.45
2018-12-19T11:38:24.978Z,23.77
2018-12-19T11:40:51.260Z,22.20
2018-12-19T11:43:17.534Z,23.05
2018-12-19T11:45:43.832Z,23.67
2018-12-19T11:48:10.104Z,20.77
2018-12-19T11:50:36.343Z,23.05
2018-12-19T11:53:02.612Z,23.18
2018-12-19T11:55:28.933Z,23.85
2018-12-19T11:57:55.198Z,21.23
2018-12-19T12:00:21.581Z,21.95
2018-12-19T12:02:47.900Z,22.00
2018-12-19T12:05:14.226Z,23.62
2018-12-19T12:07:40.652Z,21.02
2018-12-19T12:10:07.280Z,21.52
2018-12-19T12:12:33.564Z,20.05
2018-12-19T12:14:59.829Z,20.90
2018-12-19T12:17:26.133Z,20.35
2018-12-19T12:19:52.402Z,19.70
2018-12-19T12:22:18.702Z,19.57
2018-12-19T12:24:44.988Z,21.27
2018-12-19T12:27:11.259Z,21.23
2018-12-19T12:29:37.548Z,22.02
2018-12-19T12:32:03.836Z,19.95
2018-12-19T12:34:30.092Z,21.75
2018-12-19T12:36:56.382Z,20.97
2018-12-19T12:39:22.648Z,20.08
2018-12-19T12:41:52.311Z,19.87
2018-12-19T12:44:17.290Z,19.90
2018-12-19T12:46:43.685Z,19.73
2018-12-19T12:49:09.967Z,18.98
2018-12-19T12:51:36.674Z,21.35
2018-12-19T12:54:02.990Z,23.30
2018-12-19T12:56:29.289Z,21.82
2018-12-19T12:58:55.595Z,21.05
2018-12-19T13:01:21.940Z,22.00
2018-12-19T13:03:48.221Z,20.20
2018-12-19T13:06:14.475Z,23.30
2018-12-19T13:08:40.871Z,22.10
2018-12-19T13:11:07.317Z,22.30
2018-12-19T13:13:33.599Z,22.45
2018-12-19T13:15:59.938Z,22.42
2018-12-19T13:18:26.191Z,22.52
2018-12-19T13:20:52.457Z,22.25
2018-12-19T13:23:18.737Z,22.37
2018-12-19T13:25:45.053Z,21.40
2018-12-19T13:28:11.328Z,22.02
2018-12-19T13:30:37.579Z,22.67
2018-12-19T13:33:03.829Z,21.07
2018-12-19T13:35:30.114Z,22.48
2018-12-19T13:37:56.365Z,22.73
2018-12-19T13:40:22.614Z,22.98
2018-12-19T13:42:48.879Z,21.35
2018-12-19T13:45:15.176Z,20.72
2018-12-19T13:47:41.430Z,20.55
2018-12-19T13:50:07.786Z,22.50
2018-12-19T13:52:34.106Z,20.97
2018-12-19T13:55:00.421Z,22.05
2018-12-19T13:57:28.271Z,22.32
2018-12-19T13:59:54.913Z,21.85
2018-12-19T14:02:21.203Z,22.55
2018-12-19T14:04:47.724Z,22.42
2018-12-19T14:07:14.338Z,22.87
2018-12-19T14:09:40.619Z,21.45
2018-12-19T14:12:12.229Z,22.05
2018-12-19T14:14:35.239Z,22.10
2018-12-19T14:17:01.498Z,21.30
2018-12-19T14:19:27.776Z,20.95
2018-12-19T14:21:54.035Z,23.62
2018-12-19T14:24:20.294Z,23.57
2018-12-19T14:26:46.591Z,21.12
2018-12-19T14:29:12.865Z,22.02
2018-12-19T14:31:39.208Z,19.90
2018-12-19T14:34:05.451Z,22.87
2018-12-19T14:36:31.705Z,23.50
2018-12-19T14:38:58.040Z,23.02
2018-12-19T14:41:24.321Z,22.60
2018-12-19T14:43:50.600Z,23.35
2018-12-19T14:46:17.771Z,21.40
2018-12-19T14:48:44.034Z,24.00
2018-12-19T14:51:10.374Z,24.20
2018-12-19T14:53:36.631Z,22.95
2018-12-19T14:56:03.067Z,23.47
2018-12-19T14:58:29.318Z,23.02
2018-12-19T15:00:55.645Z,23.20
2018-12-19T15:03:21.915Z,22.60
2018-12-19T15:05:48.167Z,23.85
2018-12-19T15:08:14.447Z,24.50
2018-12-19T15:10:40.712Z,23.52
2018-12-19T15:13:07.013Z,24.15
2018-12-19T15:15:33.309Z,25.15
2018-12-19T15:17:59.578Z,24.15
2018-12-19T15:20:25.870Z,25.00
2018-12-19T15:22:52.147Z,24.10
2018-12-19T15:25:18.421Z,25.25
2018-12-19T15:27:44.691Z,25.05
2018-12-19T15:30:11.124Z,27.27
2018-12-19T15:32:38.149Z,23.60
2018-12-19T15:35:04.664Z,25.35
2018-12-19T15:37:30.974Z,24.67
2018-12-19T15:39:57.219Z,23.10
2018-12-19T15:42:23.518Z,23.45
2018-12-19T15:44:49.782Z,23.70
2018-12-19T15:47:16.044Z,23.42
2018-12-19T15:49:42.346Z,25.90
2018-12-19T15:52:08.594Z,26.50
2018-12-19T15:54:34.905Z,24.87
2018-12-19T15:57:01.203Z,23.52
2018-12-19T15:59:27.487Z,25.30
2018-12-19T16:01:53.734Z,25.97
2018-12-19T16:04:20.010Z,24.00
2018-12-19T16:06:46.260Z,25.77
2018-12-19T16:09:12.551Z,22.65
2018-12-19T16:11:38.902Z,24.43
2018-12-19T16:14:05.179Z,24.32
2018-12-19T16:16:31.450Z,22.82
2018-12-19T16:18:57.713Z,23.87
2018-12-19T16:21:23.981Z,24.82
2018-12-19T16:23:50.271Z,24.15
2018-12-19T16:26:16.541Z,22.22
2018-12-19T16:28:42.813Z,23.92
2018-12-19T16:31:09.259Z,24.20
2018-12-19T16:33:35.512Z,39.50
2018-12-19T16:36:01.794Z,54.30
2018-12-19T16:38:28.142Z,44.45
2018-12-19T16:40:54.436Z,28.50
2018-12-19T16:43:20.796Z,37.05
2018-12-19T16:45:47.150Z,45.95
2018-12-19T16:48:13.408Z,60.20
2018-12-19T16:50:39.823Z,47.35
2018-12-19T16:53:06.094Z,31.33
2018-12-19T16:55:32.364Z,28.47
2018-12-19T16:57:58.830Z,31.75
2018-12-19T17:00:25.536Z,26.45
2018-12-19T17:02:52.135Z,23.00
2018-12-19T17:05:18.428Z,26.02
2018-12-19T17:07:44.687Z,26.60
2018-12-19T17:10:10.984Z,24.60
2018-12-19T17:12:37.289Z,25.52
2018-12-19T17:15:04.184Z,26.40
2018-12-19T17:17:30.962Z,24.98
2018-12-19T17:19:57.287Z,25.85
2018-12-19T17:22:23.599Z,25.85
2018-12-19T17:24:49.872Z,25.97
2018-12-19T17:27:16.147Z,26.70
2018-12-19T17:29:42.792Z,26.42
2018-12-19T17:32:09.624Z,28.65
2018-12-19T17:34:36.161Z,28.87
2018-12-19T17:37:02.801Z,27.20
2018-12-19T17:39:29.101Z,29.90
2018-12-19T17:41:55.391Z,28.90
2018-12-19T17:44:21.643Z,29.77
2018-12-19T17:46:47.931Z,32.25
2018-12-19T17:49:14.924Z,29.48
2018-12-19T17:51:41.587Z,30.25
2018-12-19T17:54:07.966Z,28.83
2018-12-19T17:56:34.374Z,28.80
2018-12-19T17:59:00.943Z,29.95
2018-12-19T18:01:27.615Z,30.50
2018-12-19T18:03:54.015Z,28.75
2018-12-19T18:06:20.307Z,35.45
2018-12-19T18:08:46.603Z,29.77
2018-12-19T18:11:13.052Z,34.15
2018-12-19T18:13:40.239Z,40.25
2018-12-19T18:16:07.111Z,41.45
2018-12-19T18:18:33.508Z,32.33
2018-12-19T18:21:00.161Z,31.25
2018-12-19T18:23:26.916Z,33.00
2018-12-19T18:25:53.202Z,31.85
2018-12-19T18:28:19.586Z,30.55
2018-12-19T18:30:45.925Z,28.52
2018-12-19T18:33:12.183Z,31.17
2018-12-19T18:35:38.503Z,31.48
2018-12-19T18:38:05.193Z,31.20
2018-12-19T18:40:31.510Z,30.23
2018-12-19T18:42:58.145Z,29.40
2018-12-19T18:45:24.428Z,29.32
2018-12-19T18:47:50.728Z,32.10
2018-12-19T18:50:19.052Z,31.95
2018-12-19T18:52:45.779Z,31.70
2018-12-19T18:55:12.314Z,33.75
2018-12-19T18:57:38.745Z,30.95
2018-12-19T19:00:07.105Z,29.75
2018-12-19T19:02:33.679Z,29.90
2018-12-19T19:05:00.037Z,30.17
2018-12-19T19:07:26.355Z,31.70
2018-12-19T19:09:52.874Z,28.85
2018-12-19T19:12:19.182Z,31.23
2018-12-19T19:14:45.508Z,29.70
2018-12-19T19:17:11.823Z,32.58
2018-12-19T19:19:38.107Z,30.88
2018-12-19T19:22:04.504Z,30.70
2018-12-19T19:24:30.795Z,30.55
2018-12-19T19:26:57.086Z,30.60
2018-12-19T19:29:23.364Z,31.25
2018-12-19T19:31:49.667Z,30.90
2018-12-19T19:34:16.070Z,30.60
2018-12-19T19:36:42.346Z,29.20
2018-12-19T19:39:08.627Z,33.60
2018-12-19T19:41:34.940Z,31.70
2018-12-19T19:44:01.267Z,30.90
2018-12-19T19:46:27.570Z,28.62
2018-12-19T19:48:53.847Z,29.48
2018-12-19T19:51:20.131Z,29.30
2018-12-19T19:53:46.453Z,32.48
2018-12-19T19:56:12.795Z,33.28
2018-12-19T19:58:39.039Z,30.95
2018-12-19T20:01:05.338Z,31.50
2018-12-19T20:03:31.664Z,32.93
2018-12-19T20:05:58.074Z,30.85
2018-12-19T20:08:24.357Z,30.72
2018-12-19T20:10:50.666Z,32.95
2018-12-19T20:13:16.941Z,28.92
2018-12-19T20:15:43.294Z,31.73
2018-12-19T20:18:09.641Z,28.80
2018-12-19T20:20:35.907Z,29.67
2018-12-19T20:23:02.254Z,29.52
2018-12-19T20:25:28.594Z,29.37
2018-12-19T20:27:54.944Z,29.18
2018-12-19T20:30:21.387Z,31.73
2018-12-19T20:32:47.672Z,30.08
2018-12-19T20:35:13.974Z,29.37
2018-12-19T20:37:40.321Z,30.43
2018-12-19T20:40:06.704Z,30.52
2018-12-19T20:42:33.000Z,30.10
2018-12-19T20:44:59.399Z,31.12
2018-12-19T20:47:25.688Z,31.07
2018-12-19T20:49:52.010Z,28.65
2018-12-19T20:52:18.271Z,30.82
2018-12-19T20:54:44.593Z,30.95
2018-12-19T20:57:11.056Z,30.65
2018-12-19T20:59:37.356Z,30.75
2018-12-19T21:02:04.034Z,32.83
2018-12-19T21:04:30.339Z,29.10
2018-12-19T21:06:56.691Z,30.75
2018-12-19T21:09:22.985Z,29.85
2018-12-19T21:11:49.319Z,29.92
2018-12-19T21:14:15.678Z,30.12
2018-12-19T21:16:48.027Z,28.85
2018-12-19T21:19:14.305Z,26.93
2018-12-19T21:21:40.578Z,27.25
2018-12-19T21:24:06.839Z,26.70
2018-12-19T21:26:33.105Z,27.20
2018-12-19T21:28:59.364Z,26.48
2018-12-19T21:31:25.636Z,27.45
2018-12-19T21:33:51.951Z,27.17
2018-12-19T21:36:18.244Z,28.92
2018-12-19T21:38:44.577Z,25.88
2018-12-19T21:41:10.934Z,27.82
2018-12-19T21:43:37.232Z,27.45
2018-12-19T21:46:03.529Z,26.57
2018-12-19T21:48:29.921Z,26.95
2018-12-19T21:50:56.180Z,25.97
2018-12-19T21:53:22.498Z,26.77
2018-12-19T21:55:48.852Z,26.65
2018-12-19T21:58:15.182Z,27.27
2018-12-19T22:00:41.550Z,27.52
2018-12-19T22:03:08.282Z,27.25
2018-12-19T22:05:34.596Z,26.65
2018-12-19T22:08:00.856Z,26.68
2018-12-19T22:10:27.148Z,26.52
2018-12-19T22:12:53.492Z,26.90
2018-12-19T22:15:19.865Z,31.42
2018-12-19T22:17:47.090Z,31.77
2018-12-19T22:20:13.471Z,28.57
2018-12-19T22:22:39.861Z,29.05
2018-12-19T22:25:06.167Z,27.48
2018-12-19T22:27:32.524Z,27.60
2018-12-19T22:29:58.915Z,29.80
2018-12-19T22:32:25.459Z,30.30
2018-12-19T22:34:51.707Z,30.68
2018-12-19T22:37:18.113Z,29.42
2018-12-19T22:39:44.370Z,28.12
2018-12-19T22:42:10.669Z,33.02
2018-12-19T22:44:37.023Z,28.73
2018-12-19T22:47:03.460Z,29.12
2018-12-19T22:49:29.819Z,28.30
2018-12-19T22:51:56.126Z,30.65
2018-12-19T22:54:22.582Z,28.57
2018-12-19T22:56:48.988Z,28.20
2018-12-19T22:59:15.324Z,31.45
2018-12-19T23:01:47.871Z,31.00
2018-12-19T23:04:14.268Z,28.00
2018-12-19T23:06:40.639Z,29.42
2018-12-19T23:09:07.134Z,29.07
2018-12-19T23:11:33.459Z,27.45
2018-12-19T23:13:59.909Z,29.35
2018-12-19T23:16:26.694Z,29.37
2018-12-19T23:18:53.035Z,28.52
2018-12-19T23:21:19.618Z,30.15
2018-12-19T23:23:45.907Z,29.30
2018-12-19T23:26:12.230Z,27.62
2018-12-19T23:28:38.520Z,27.87
2018-12-19T23:31:04.840Z,30.48
2018-12-19T23:33:31.127Z,26.80
2018-12-19T23:35:57.471Z,30.43
2018-12-19T23:38:23.888Z,30.82
2018-12-19T23:40:50.212Z,30.92
2018-12-19T23:43:16.488Z,29.20
2018-12-19T23:45:42.771Z,29.23
2018-12-19T23:48:09.272Z,29.50
2018-12-19T23:50:35.776Z,32.05
2018-12-19T23:53:02.355Z,31.50
2018-12-19T23:55:28.754Z,29.87
2018-12-19T23:57:55.160Z,29.63
